sensor_id;sensor_type;location;lat;lon;timestamp;P1;durP1;ratioP1;P2;durP2;ratioP2
29534;SDS011;72082;52.650;8.116;2023-11-21T00:01:44;12.40;;;4.43;;
29534;SDS011;72082;52.650;8.116;2023-11-21T00:04:09;7.03;;;4.40;;
29534;SDS011;72082;52.650;8.116;2023-11-21T00:06:34;2.73;;;2.63;;
29534;SDS011;72082;52.650;8.116;2023-11-21T00:08:59;9.70;;;5.37;;
29534;SDS011;72082;52.650;8.116;2023-11-21T00:11:25;19.73;;;5.77;;
29534;SDS011;72082;52.650;8.116;2023-11-21T00:13:50;8.53;;;4.67;;
29534;SDS011;72082;52.650;8.116;2023-11-21T00:16:15;3.93;;;3.63;;
29534;SDS011;72082;52.650;8.116;2023-11-21T00:18:40;9.93;;;6.70;;
29534;SDS011;72082;52.650;8.116;2023-11-21T00:21:06;5.97;;;4.57;;
29534;SDS011;72082;52.650;8.116;2023-11-21T00:23:31;15.03;;;4.07;;
29534;SDS011;72082;52.650;8.116;2023-11-21T00:25:56;20.40;;;5.20;;
29534;SDS011;72082;52.650;8.116;2023-11-21T00:28:21;6.83;;;5.77;;
29534;SDS011;72082;52.650;8.116;2023-11-21T00:30:46;3.40;;;3.10;;
29534;SDS011;72082;52.650;8.116;2023-11-21T00:33:12;9.80;;;4.67;;
29534;SDS011;72082;52.650;8.116;2023-11-21T00:35:37;13.73;;;4.60;;
29534;SDS011;72082;52.650;8.116;2023-11-21T00:38:02;20.23;;;5.63;;
29534;SDS011;72082;52.650;8.116;2023-11-21T00:40:27;6.30;;;4.87;;
29534;SDS011;72082;52.650;8.116;2023-11-21T00:42:53;12.13;;;5.20;;
29534;SDS011;72082;52.650;8.116;2023-11-21T00:45:18;4.70;;;4.23;;
29534;SDS011;72082;52.650;8.116;2023-11-21T00:47:43;6.90;;;6.23;;
29534;SDS011;72082;52.650;8.116;2023-11-21T00:50:09;7.70;;;5.30;;
29534;SDS011;72082;52.650;8.116;2023-11-21T00:52:34;8.30;;;4.73;;
29534;SDS011;72082;52.650;8.116;2023-11-21T00:54:59;7.33;;;6.53;;
29534;SDS011;72082;52.650;8.116;2023-11-21T00:57:25;3.63;;;3.40;;
29534;SDS011;72082;52.650;8.116;2023-11-21T00:59:51;9.95;;;4.07;;
29534;SDS011;72082;52.650;8.116;2023-11-21T01:02:16;6.43;;;4.67;;
29534;SDS011;72082;52.650;8.116;2023-11-21T01:04:41;6.13;;;5.50;;
29534;SDS011;72082;52.650;8.116;2023-11-21T01:07:07;9.07;;;5.20;;
29534;SDS011;72082;52.650;8.116;2023-11-21T01:09:32;4.77;;;4.37;;
29534;SDS011;72082;52.650;8.116;2023-11-21T01:11:57;21.03;;;5.67;;
29534;SDS011;72082;52.650;8.116;2023-11-21T01:14:22;9.70;;;6.43;;
29534;SDS011;72082;52.650;8.116;2023-11-21T01:16:48;4.63;;;3.80;;
29534;SDS011;72082;52.650;8.116;2023-11-21T01:19:13;7.17;;;4.20;;
29534;SDS011;72082;52.650;8.116;2023-11-21T01:21:38;25.93;;;6.53;;
29534;SDS011;72082;52.650;8.116;2023-11-21T01:24:03;13.10;;;6.00;;
29534;SDS011;72082;52.650;8.116;2023-11-21T01:26:29;5.07;;;4.20;;
29534;SDS011;72082;52.650;8.116;2023-11-21T01:28:54;6.77;;;6.00;;
29534;SDS011;72082;52.650;8.116;2023-11-21T01:31:19;4.53;;;4.10;;
29534;SDS011;72082;52.650;8.116;2023-11-21T01:33:45;4.70;;;4.40;;
29534;SDS011;72082;52.650;8.116;2023-11-21T01:36:10;6.00;;;5.33;;
29534;SDS011;72082;52.650;8.116;2023-11-21T01:38:35;4.67;;;4.00;;
29534;SDS011;72082;52.650;8.116;2023-11-21T01:41:01;5.70;;;5.10;;
29534;SDS011;72082;52.650;8.116;2023-11-21T01:43:26;15.50;;;7.93;;
29534;SDS011;72082;52.650;8.116;2023-11-21T01:45:53;18.90;;;6.53;;
29534;SDS011;72082;52.650;8.116;2023-11-21T01:48:19;9.80;;;7.18;;
29534;SDS011;72082;52.650;8.116;2023-11-21T01:50:44;8.10;;;5.90;;
29534;SDS011;72082;52.650;8.116;2023-11-21T01:53:10;22.67;;;5.40;;
29534;SDS011;72082;52.650;8.116;2023-11-21T01:55:37;5.93;;;4.72;;
29534;SDS011;72082;52.650;8.116;2023-11-21T01:58:02;19.30;;;5.37;;
29534;SDS011;72082;52.650;8.116;2023-11-21T02:00:28;8.17;;;5.07;;
29534;SDS011;72082;52.650;8.116;2023-11-21T02:02:53;12.23;;;8.27;;
29534;SDS011;72082;52.650;8.116;2023-11-21T02:05:19;8.23;;;5.90;;
29534;SDS011;72082;52.650;8.116;2023-11-21T02:07:44;8.13;;;6.40;;
29534;SDS011;72082;52.650;8.116;2023-11-21T02:10:10;20.53;;;7.77;;
29534;SDS011;72082;52.650;8.116;2023-11-21T02:12:36;24.20;;;5.13;;
29534;SDS011;72082;52.650;8.116;2023-11-21T02:15:02;21.67;;;8.13;;
29534;SDS011;72082;52.650;8.116;2023-11-21T02:17:28;22.98;;;7.63;;
29534;SDS011;72082;52.650;8.116;2023-11-21T02:19:53;16.70;;;7.10;;
29534;SDS011;72082;52.650;8.116;2023-11-21T02:22:18;12.40;;;5.60;;
29534;SDS011;72082;52.650;8.116;2023-11-21T02:24:45;8.47;;;5.97;;
29534;SDS011;72082;52.650;8.116;2023-11-21T02:27:11;8.70;;;5.70;;
29534;SDS011;72082;52.650;8.116;2023-11-21T02:29:37;11.30;;;5.47;;
29534;SDS011;72082;52.650;8.116;2023-11-21T02:32:02;18.97;;;10.20;;
29534;SDS011;72082;52.650;8.116;2023-11-21T02:34:27;57.57;;;7.83;;
29534;SDS011;72082;52.650;8.116;2023-11-21T02:36:52;12.83;;;4.67;;
29534;SDS011;72082;52.650;8.116;2023-11-21T02:39:18;16.63;;;8.50;;
29534;SDS011;72082;52.650;8.116;2023-11-21T02:41:43;15.83;;;7.80;;
29534;SDS011;72082;52.650;8.116;2023-11-21T02:44:09;36.33;;;6.53;;
29534;SDS011;72082;52.650;8.116;2023-11-21T02:46:35;7.03;;;4.63;;
29534;SDS011;72082;52.650;8.116;2023-11-21T02:49:01;6.85;;;6.03;;
29534;SDS011;72082;52.650;8.116;2023-11-21T02:51:27;34.05;;;6.68;;
29534;SDS011;72082;52.650;8.116;2023-11-21T02:53:53;17.57;;;11.27;;
29534;SDS011;72082;52.650;8.116;2023-11-21T02:56:18;17.93;;;6.87;;
29534;SDS011;72082;52.650;8.116;2023-11-21T02:58:43;25.50;;;8.40;;
29534;SDS011;72082;52.650;8.116;2023-11-21T03:01:09;9.27;;;7.63;;
29534;SDS011;72082;52.650;8.116;2023-11-21T03:03:34;17.07;;;9.20;;
29534;SDS011;72082;52.650;8.116;2023-11-21T03:06:02;41.03;;;7.47;;
29534;SDS011;72082;52.650;8.116;2023-11-21T03:08:28;11.10;;;5.72;;
29534;SDS011;72082;52.650;8.116;2023-11-21T03:10:53;11.73;;;8.17;;
29534;SDS011;72082;52.650;8.116;2023-11-21T03:13:18;28.23;;;7.47;;
29534;SDS011;72082;52.650;8.116;2023-11-21T03:15:43;9.40;;;8.57;;
29534;SDS011;72082;52.650;8.116;2023-11-21T03:18:09;85.63;;;10.70;;
29534;SDS011;72082;52.650;8.116;2023-11-21T03:20:34;8.97;;;5.03;;
29534;SDS011;72082;52.650;8.116;2023-11-21T03:22:59;16.63;;;6.03;;
29534;SDS011;72082;52.650;8.116;2023-11-21T03:25:24;16.07;;;7.60;;
29534;SDS011;72082;52.650;8.116;2023-11-21T03:27:49;14.10;;;6.37;;
29534;SDS011;72082;52.650;8.116;2023-11-21T03:30:15;21.70;;;8.47;;
29534;SDS011;72082;52.650;8.116;2023-11-21T03:32:40;24.73;;;9.60;;
29534;SDS011;72082;52.650;8.116;2023-11-21T03:35:05;16.93;;;9.13;;
29534;SDS011;72082;52.650;8.116;2023-11-21T03:37:31;25.80;;;7.83;;
29534;SDS011;72082;52.650;8.116;2023-11-21T03:39:56;10.90;;;6.50;;
29534;SDS011;72082;52.650;8.116;2023-11-21T03:42:21;14.07;;;7.17;;
29534;SDS011;72082;52.650;8.116;2023-11-21T03:44:47;34.63;;;7.00;;
29534;SDS011;72082;52.650;8.116;2023-11-21T03:47:12;12.60;;;5.20;;
29534;SDS011;72082;52.650;8.116;2023-11-21T03:49:37;16.97;;;5.40;;
29534;SDS011;72082;52.650;8.116;2023-11-21T03:52:03;17.37;;;7.77;;
29534;SDS011;72082;52.650;8.116;2023-11-21T03:54:28;15.53;;;8.97;;
29534;SDS011;72082;52.650;8.116;2023-11-21T03:56:53;10.70;;;8.43;;
29534;SDS011;72082;52.650;8.116;2023-11-21T03:59:18;47.67;;;6.20;;
29534;SDS011;72082;52.650;8.116;2023-11-21T04:01:44;41.67;;;8.23;;
29534;SDS011;72082;52.650;8.116;2023-11-21T04:04:09;16.23;;;7.20;;
29534;SDS011;72082;52.650;8.116;2023-11-21T04:06:34;22.53;;;9.17;;
29534;SDS011;72082;52.650;8.116;2023-11-21T04:08:59;28.80;;;9.00;;
29534;SDS011;72082;52.650;8.116;2023-11-21T04:11:24;22.07;;;7.50;;
29534;SDS011;72082;52.650;8.116;2023-11-21T04:13:50;22.47;;;8.30;;
29534;SDS011;72082;52.650;8.116;2023-11-21T04:16:15;16.23;;;7.43;;
29534;SDS011;72082;52.650;8.116;2023-11-21T04:18:40;8.83;;;6.83;;
29534;SDS011;72082;52.650;8.116;2023-11-21T04:21:06;17.70;;;5.17;;
29534;SDS011;72082;52.650;8.116;2023-11-21T04:23:31;16.00;;;6.27;;
29534;SDS011;72082;52.650;8.116;2023-11-21T04:25:57;14.67;;;7.67;;
29534;SDS011;72082;52.650;8.116;2023-11-21T04:28:23;6.83;;;5.23;;
29534;SDS011;72082;52.650;8.116;2023-11-21T04:30:48;12.77;;;6.30;;
29534;SDS011;72082;52.650;8.116;2023-11-21T04:33:13;10.17;;;5.97;;
29534;SDS011;72082;52.650;8.116;2023-11-21T04:35:39;6.53;;;4.97;;
29534;SDS011;72082;52.650;8.116;2023-11-21T04:38:04;17.33;;;6.20;;
29534;SDS011;72082;52.650;8.116;2023-11-21T04:40:29;6.67;;;5.90;;
29534;SDS011;72082;52.650;8.116;2023-11-21T04:42:54;18.00;;;6.17;;
29534;SDS011;72082;52.650;8.116;2023-11-21T04:45:19;7.50;;;6.40;;
29534;SDS011;72082;52.650;8.116;2023-11-21T04:47:45;4.90;;;4.37;;
29534;SDS011;72082;52.650;8.116;2023-11-21T04:50:10;14.60;;;6.93;;
29534;SDS011;72082;52.650;8.116;2023-11-21T04:52:35;18.67;;;6.13;;
29534;SDS011;72082;52.650;8.116;2023-11-21T04:55:00;7.70;;;5.30;;
29534;SDS011;72082;52.650;8.116;2023-11-21T04:57:26;4.90;;;4.57;;
29534;SDS011;72082;52.650;8.116;2023-11-21T04:59:51;7.80;;;6.37;;
29534;SDS011;72082;52.650;8.116;2023-11-21T05:02:16;24.50;;;5.00;;
29534;SDS011;72082;52.650;8.116;2023-11-21T05:04:41;11.23;;;6.37;;
29534;SDS011;72082;52.650;8.116;2023-11-21T05:07:06;6.53;;;5.07;;
29534;SDS011;72082;52.650;8.116;2023-11-21T05:09:32;11.37;;;6.83;;
29534;SDS011;72082;52.650;8.116;2023-11-21T05:11:57;12.43;;;7.37;;
29534;SDS011;72082;52.650;8.116;2023-11-21T05:14:22;8.97;;;6.80;;
29534;SDS011;72082;52.650;8.116;2023-11-21T05:16:48;4.57;;;3.63;;
29534;SDS011;72082;52.650;8.116;2023-11-21T05:19:13;6.60;;;5.90;;
29534;SDS011;72082;52.650;8.116;2023-11-21T05:21:38;15.63;;;7.47;;
29534;SDS011;72082;52.650;8.116;2023-11-21T05:24:03;6.93;;;6.23;;
29534;SDS011;72082;52.650;8.116;2023-11-21T05:26:29;13.40;;;5.57;;
29534;SDS011;72082;52.650;8.116;2023-11-21T05:28:54;6.57;;;5.80;;
29534;SDS011;72082;52.650;8.116;2023-11-21T05:31:19;9.90;;;5.77;;
29534;SDS011;72082;52.650;8.116;2023-11-21T05:33:45;4.00;;;3.50;;
29534;SDS011;72082;52.650;8.116;2023-11-21T05:36:10;6.90;;;5.00;;
29534;SDS011;72082;52.650;8.116;2023-11-21T05:38:35;4.37;;;3.40;;
29534;SDS011;72082;52.650;8.116;2023-11-21T05:41:01;8.60;;;7.10;;
29534;SDS011;72082;52.650;8.116;2023-11-21T05:43:27;4.97;;;4.27;;
29534;SDS011;72082;52.650;8.116;2023-11-21T05:45:52;8.63;;;6.00;;
29534;SDS011;72082;52.650;8.116;2023-11-21T05:48:17;11.87;;;6.00;;
29534;SDS011;72082;52.650;8.116;2023-11-21T05:50:42;7.53;;;5.30;;
29534;SDS011;72082;52.650;8.116;2023-11-21T05:53:07;22.43;;;5.37;;
29534;SDS011;72082;52.650;8.116;2023-11-21T05:55:33;7.80;;;4.80;;
29534;SDS011;72082;52.650;8.116;2023-11-21T05:57:58;12.50;;;6.17;;
29534;SDS011;72082;52.650;8.116;2023-11-21T06:00:23;11.80;;;4.93;;
29534;SDS011;72082;52.650;8.116;2023-11-21T06:02:49;16.87;;;6.40;;
29534;SDS011;72082;52.650;8.116;2023-11-21T06:05:14;13.43;;;7.78;;
29534;SDS011;72082;52.650;8.116;2023-11-21T06:07:40;14.17;;;7.87;;
29534;SDS011;72082;52.650;8.116;2023-11-21T06:10:05;4.40;;;4.00;;
29534;SDS011;72082;52.650;8.116;2023-11-21T06:12:32;9.35;;;4.68;;
29534;SDS011;72082;52.650;8.116;2023-11-21T06:14:57;33.20;;;6.20;;
29534;SDS011;72082;52.650;8.116;2023-11-21T06:17:22;8.20;;;5.33;;
29534;SDS011;72082;52.650;8.116;2023-11-21T06:19:47;6.27;;;5.37;;
29534;SDS011;72082;52.650;8.116;2023-11-21T06:22:12;6.73;;;4.10;;
29534;SDS011;72082;52.650;8.116;2023-11-21T06:24:38;12.10;;;6.73;;
29534;SDS011;72082;52.650;8.116;2023-11-21T06:27:03;5.93;;;2.97;;
29534;SDS011;72082;52.650;8.116;2023-11-21T06:29:29;23.35;;;7.32;;
29534;SDS011;72082;52.650;8.116;2023-11-21T06:31:54;15.87;;;8.57;;
29534;SDS011;72082;52.650;8.116;2023-11-21T06:34:19;6.23;;;5.10;;
29534;SDS011;72082;52.650;8.116;2023-11-21T06:36:45;11.17;;;5.07;;
29534;SDS011;72082;52.650;8.116;2023-11-21T06:39:10;18.43;;;8.00;;
29534;SDS011;72082;52.650;8.116;2023-11-21T06:41:35;9.53;;;7.13;;
29534;SDS011;72082;52.650;8.116;2023-11-21T06:44:00;9.50;;;5.53;;
29534;SDS011;72082;52.650;8.116;2023-11-21T06:46:25;13.30;;;8.10;;
29534;SDS011;72082;52.650;8.116;2023-11-21T06:48:51;8.50;;;6.53;;
29534;SDS011;72082;52.650;8.116;2023-11-21T06:51:16;15.10;;;8.90;;
29534;SDS011;72082;52.650;8.116;2023-11-21T06:53:41;8.70;;;6.13;;
29534;SDS011;72082;52.650;8.116;2023-11-21T06:56:16;9.73;;;7.00;;
29534;SDS011;72082;52.650;8.116;2023-11-21T06:58:42;11.35;;;8.68;;
29534;SDS011;72082;52.650;8.116;2023-11-21T07:01:07;14.27;;;8.43;;
29534;SDS011;72082;52.650;8.116;2023-11-21T07:03:32;12.83;;;5.40;;
29534;SDS011;72082;52.650;8.116;2023-11-21T07:05:57;5.63;;;4.23;;
29534;SDS011;72082;52.650;8.116;2023-11-21T07:08:22;12.63;;;7.37;;
29534;SDS011;72082;52.650;8.116;2023-11-21T07:10:48;11.30;;;6.70;;
29534;SDS011;72082;52.650;8.116;2023-11-21T07:13:13;14.37;;;9.10;;
29534;SDS011;72082;52.650;8.116;2023-11-21T07:15:38;8.00;;;5.07;;
29534;SDS011;72082;52.650;8.116;2023-11-21T07:18:03;14.07;;;7.00;;
29534;SDS011;72082;52.650;8.116;2023-11-21T07:20:28;8.50;;;5.93;;
29534;SDS011;72082;52.650;8.116;2023-11-21T07:22:54;9.07;;;8.17;;
29534;SDS011;72082;52.650;8.116;2023-11-21T07:25:19;16.50;;;7.47;;
29534;SDS011;72082;52.650;8.116;2023-11-21T07:27:44;10.57;;;7.57;;
29534;SDS011;72082;52.650;8.116;2023-11-21T07:30:09;6.63;;;5.67;;
29534;SDS011;72082;52.650;8.116;2023-11-21T07:32:35;6.55;;;4.70;;
29534;SDS011;72082;52.650;8.116;2023-11-21T07:35:01;15.43;;;8.00;;
29534;SDS011;72082;52.650;8.116;2023-11-21T07:37:26;7.30;;;4.80;;
29534;SDS011;72082;52.650;8.116;2023-11-21T07:39:51;7.83;;;6.17;;
29534;SDS011;72082;52.650;8.116;2023-11-21T07:42:16;5.67;;;5.13;;
29534;SDS011;72082;52.650;8.116;2023-11-21T07:44:41;7.80;;;5.00;;
29534;SDS011;72082;52.650;8.116;2023-11-21T07:47:07;6.00;;;2.67;;
29534;SDS011;72082;52.650;8.116;2023-11-21T07:49:32;4.10;;;3.80;;
29534;SDS011;72082;52.650;8.116;2023-11-21T07:51:57;3.70;;;3.30;;
29534;SDS011;72082;52.650;8.116;2023-11-21T07:54:22;3.37;;;3.07;;
29534;SDS011;72082;52.650;8.116;2023-11-21T07:56:47;5.17;;;4.53;;
29534;SDS011;72082;52.650;8.116;2023-11-21T07:59:13;6.17;;;4.23;;
29534;SDS011;72082;52.650;8.116;2023-11-21T08:01:38;4.70;;;3.43;;
29534;SDS011;72082;52.650;8.116;2023-11-21T08:04:03;7.60;;;5.40;;
29534;SDS011;72082;52.650;8.116;2023-11-21T08:06:29;4.03;;;3.73;;
29534;SDS011;72082;52.650;8.116;2023-11-21T08:08:55;6.55;;;4.70;;
29534;SDS011;72082;52.650;8.116;2023-11-21T08:11:20;6.90;;;4.93;;
29534;SDS011;72082;52.650;8.116;2023-11-21T08:13:45;4.67;;;4.27;;
29534;SDS011;72082;52.650;8.116;2023-11-21T08:16:10;4.30;;;3.80;;
29534;SDS011;72082;52.650;8.116;2023-11-21T08:18:35;4.53;;;4.10;;
29534;SDS011;72082;52.650;8.116;2023-11-21T08:21:01;5.17;;;4.70;;
29534;SDS011;72082;52.650;8.116;2023-11-21T08:23:26;3.10;;;3.00;;
29534;SDS011;72082;52.650;8.116;2023-11-21T08:25:52;5.77;;;3.40;;
29534;SDS011;72082;52.650;8.116;2023-11-21T08:28:18;8.25;;;3.55;;
29534;SDS011;72082;52.650;8.116;2023-11-21T08:30:44;2.00;;;1.90;;
29534;SDS011;72082;52.650;8.116;2023-11-21T08:33:09;2.80;;;2.67;;
29534;SDS011;72082;52.650;8.116;2023-11-21T08:35:35;10.40;;;3.53;;
29534;SDS011;72082;52.650;8.116;2023-11-21T08:38:00;9.40;;;4.60;;
29534;SDS011;72082;52.650;8.116;2023-11-21T08:40:25;9.00;;;3.40;;
29534;SDS011;72082;52.650;8.116;2023-11-21T08:42:51;6.00;;;3.33;;
29534;SDS011;72082;52.650;8.116;2023-11-21T08:45:16;3.63;;;3.37;;
29534;SDS011;72082;52.650;8.116;2023-11-21T08:47:41;2.73;;;2.53;;
29534;SDS011;72082;52.650;8.116;2023-11-21T08:50:07;7.20;;;4.40;;
29534;SDS011;72082;52.650;8.116;2023-11-21T08:52:33;8.40;;;4.17;;
29534;SDS011;72082;52.650;8.116;2023-11-21T08:54:58;5.18;;;3.47;;
29534;SDS011;72082;52.650;8.116;2023-11-21T08:57:24;4.93;;;3.20;;
29534;SDS011;72082;52.650;8.116;2023-11-21T08:59:50;11.50;;;5.20;;
29534;SDS011;72082;52.650;8.116;2023-11-21T09:02:15;3.73;;;3.20;;
29534;SDS011;72082;52.650;8.116;2023-11-21T09:04:40;5.03;;;4.60;;
29534;SDS011;72082;52.650;8.116;2023-11-21T09:07:05;3.40;;;3.17;;
29534;SDS011;72082;52.650;8.116;2023-11-21T09:09:31;3.10;;;3.00;;
29534;SDS011;72082;52.650;8.116;2023-11-21T09:11:56;4.53;;;4.23;;
29534;SDS011;72082;52.650;8.116;2023-11-21T09:14:21;7.30;;;4.57;;
29534;SDS011;72082;52.650;8.116;2023-11-21T09:16:46;9.47;;;5.83;;
29534;SDS011;72082;52.650;8.116;2023-11-21T09:19:11;15.23;;;4.60;;
29534;SDS011;72082;52.650;8.116;2023-11-21T09:21:37;11.33;;;6.93;;
29534;SDS011;72082;52.650;8.116;2023-11-21T09:24:02;2.23;;;2.13;;
29534;SDS011;72082;52.650;8.116;2023-11-21T09:26:27;3.50;;;3.30;;
29534;SDS011;72082;52.650;8.116;2023-11-21T09:28:53;3.30;;;3.10;;
29534;SDS011;72082;52.650;8.116;2023-11-21T09:31:18;4.53;;;3.43;;
29534;SDS011;72082;52.650;8.116;2023-11-21T09:33:43;20.33;;;4.93;;
29534;SDS011;72082;52.650;8.116;2023-11-21T09:36:12;5.87;;;4.40;;
29534;SDS011;72082;52.650;8.116;2023-11-21T09:38:37;4.85;;;3.15;;
29534;SDS011;72082;52.650;8.116;2023-11-21T09:41:02;4.60;;;4.00;;
29534;SDS011;72082;52.650;8.116;2023-11-21T09:43:29;4.25;;;3.85;;
29534;SDS011;72082;52.650;8.116;2023-11-21T09:45:59;3.03;;;2.83;;
29534;SDS011;72082;52.650;8.116;2023-11-21T09:48:26;4.53;;;4.20;;
29534;SDS011;72082;52.650;8.116;2023-11-21T09:50:52;5.57;;;4.07;;
29534;SDS011;72082;52.650;8.116;2023-11-21T09:53:19;3.63;;;3.42;;
29534;SDS011;72082;52.650;8.116;2023-11-21T09:55:46;4.85;;;4.10;;
29534;SDS011;72082;52.650;8.116;2023-11-21T09:58:13;2.92;;;2.78;;
29534;SDS011;72082;52.650;8.116;2023-11-21T10:00:42;8.85;;;4.15;;
29534;SDS011;72082;52.650;8.116;2023-11-21T10:03:09;5.05;;;4.63;;
29534;SDS011;72082;52.650;8.116;2023-11-21T10:05:35;4.70;;;4.15;;
29534;SDS011;72082;52.650;8.116;2023-11-21T10:08:01;8.23;;;5.83;;
29534;SDS011;72082;52.650;8.116;2023-11-21T10:10:29;3.92;;;3.45;;
29534;SDS011;72082;52.650;8.116;2023-11-21T10:12:57;5.18;;;4.57;;
29534;SDS011;72082;52.650;8.116;2023-11-21T10:15:25;5.47;;;3.75;;
29534;SDS011;72082;52.650;8.116;2023-11-21T10:17:50;8.67;;;5.47;;
29534;SDS011;72082;52.650;8.116;2023-11-21T10:20:17;6.20;;;4.30;;
29534;SDS011;72082;52.650;8.116;2023-11-21T10:22:43;4.47;;;4.07;;
29534;SDS011;72082;52.650;8.116;2023-11-21T10:25:08;5.00;;;4.20;;
29534;SDS011;72082;52.650;8.116;2023-11-21T10:27:35;8.20;;;4.75;;
29534;SDS011;72082;52.650;8.116;2023-11-21T10:30:02;4.10;;;3.80;;
29534;SDS011;72082;52.650;8.116;2023-11-21T10:32:28;4.80;;;4.50;;
29534;SDS011;72082;52.650;8.116;2023-11-21T10:34:56;4.80;;;3.37;;
29534;SDS011;72082;52.650;8.116;2023-11-21T10:37:22;5.53;;;4.05;;
29534;SDS011;72082;52.650;8.116;2023-11-21T10:39:47;5.30;;;4.03;;
29534;SDS011;72082;52.650;8.116;2023-11-21T10:42:12;26.30;;;4.93;;
29534;SDS011;72082;52.650;8.116;2023-11-21T10:44:37;7.17;;;5.90;;
29534;SDS011;72082;52.650;8.116;2023-11-21T10:47:03;3.87;;;3.50;;
29534;SDS011;72082;52.650;8.116;2023-11-21T10:49:28;5.97;;;4.43;;
29534;SDS011;72082;52.650;8.116;2023-11-21T10:51:53;10.70;;;3.63;;
29534;SDS011;72082;52.650;8.116;2023-11-21T10:54:19;6.73;;;4.13;;
29534;SDS011;72082;52.650;8.116;2023-11-21T10:56:46;4.95;;;3.03;;
29534;SDS011;72082;52.650;8.116;2023-11-21T10:59:14;4.18;;;3.88;;
29534;SDS011;72082;52.650;8.116;2023-11-21T11:01:39;3.27;;;3.17;;
29534;SDS011;72082;52.650;8.116;2023-11-21T11:04:04;3.00;;;2.80;;
29534;SDS011;72082;52.650;8.116;2023-11-21T11:06:32;8.98;;;3.47;;
29534;SDS011;72082;52.650;8.116;2023-11-21T11:08:59;2.97;;;2.72;;
29534;SDS011;72082;52.650;8.116;2023-11-21T11:11:26;3.65;;;2.30;;
29534;SDS011;72082;52.650;8.116;2023-11-21T11:13:51;4.00;;;3.63;;
29534;SDS011;72082;52.650;8.116;2023-11-21T11:16:17;2.03;;;1.85;;
29534;SDS011;72082;52.650;8.116;2023-11-21T11:18:43;2.03;;;1.93;;
29534;SDS011;72082;52.650;8.116;2023-11-21T11:24:28;3.55;;;3.25;;
29534;SDS011;72082;52.650;8.116;2023-11-21T11:27:36;7.30;;;3.60;;
29534;SDS011;72082;52.650;8.116;2023-11-21T11:32:40;4.18;;;3.88;;
29534;SDS011;72082;52.650;8.116;2023-11-21T11:35:24;2.28;;;1.95;;
29534;SDS011;72082;52.650;8.116;2023-11-21T11:37:55;3.75;;;2.35;;
29534;SDS011;72082;52.650;8.116;2023-11-21T11:40:21;3.20;;;2.13;;
29534;SDS011;72082;52.650;8.116;2023-11-21T11:42:57;5.40;;;3.17;;
29534;SDS011;72082;52.650;8.116;2023-11-21T11:45:23;4.30;;;3.97;;
29534;SDS011;72082;52.650;8.116;2023-11-21T11:47:57;2.50;;;2.22;;
29534;SDS011;72082;52.650;8.116;2023-11-21T11:50:22;6.17;;;2.83;;
29534;SDS011;72082;52.650;8.116;2023-11-21T11:52:48;2.63;;;2.43;;
29534;SDS011;72082;52.650;8.116;2023-11-21T11:55:15;4.13;;;3.50;;
29534;SDS011;72082;52.650;8.116;2023-11-21T11:57:41;5.43;;;3.53;;
29534;SDS011;72082;52.650;8.116;2023-11-21T12:02:34;2.45;;;2.33;;
29534;SDS011;72082;52.650;8.116;2023-11-21T12:04:59;4.07;;;3.40;;
29534;SDS011;72082;52.650;8.116;2023-11-21T12:07:24;2.63;;;2.37;;
29534;SDS011;72082;52.650;8.116;2023-11-21T12:09:49;4.07;;;2.47;;
29534;SDS011;72082;52.650;8.116;2023-11-21T12:12:15;8.23;;;3.90;;
29534;SDS011;72082;52.650;8.116;2023-11-21T12:14:40;2.13;;;1.93;;
29534;SDS011;72082;52.650;8.116;2023-11-21T12:17:05;2.43;;;2.23;;
29534;SDS011;72082;52.650;8.116;2023-11-21T12:19:30;3.10;;;2.80;;
29534;SDS011;72082;52.650;8.116;2023-11-21T12:21:56;3.53;;;3.23;;
29534;SDS011;72082;52.650;8.116;2023-11-21T12:24:21;3.27;;;3.07;;
29534;SDS011;72082;52.650;8.116;2023-11-21T12:26:46;3.30;;;3.00;;
29534;SDS011;72082;52.650;8.116;2023-11-21T12:29:11;3.87;;;3.57;;
29534;SDS011;72082;52.650;8.116;2023-11-21T12:31:37;4.47;;;3.53;;
29534;SDS011;72082;52.650;8.116;2023-11-21T12:34:02;3.37;;;3.17;;
29534;SDS011;72082;52.650;8.116;2023-11-21T12:36:28;3.40;;;2.37;;
29534;SDS011;72082;52.650;8.116;2023-11-21T12:38:53;11.60;;;3.40;;
29534;SDS011;72082;52.650;8.116;2023-11-21T12:41:19;2.90;;;2.80;;
29534;SDS011;72082;52.650;8.116;2023-11-21T12:43:44;2.73;;;2.63;;
29534;SDS011;72082;52.650;8.116;2023-11-21T12:46:10;2.63;;;2.43;;
29534;SDS011;72082;52.650;8.116;2023-11-21T12:48:39;4.55;;;4.10;;
29534;SDS011;72082;52.650;8.116;2023-11-21T12:51:06;10.25;;;3.65;;
29534;SDS011;72082;52.650;8.116;2023-11-21T12:53:31;5.03;;;3.87;;
29534;SDS011;72082;52.650;8.116;2023-11-21T12:55:57;7.83;;;3.43;;
29534;SDS011;72082;52.650;8.116;2023-11-21T12:58:22;3.60;;;3.30;;
29534;SDS011;72082;52.650;8.116;2023-11-21T13:00:49;4.10;;;3.80;;
29534;SDS011;72082;52.650;8.116;2023-11-21T13:03:17;6.53;;;3.60;;
29534;SDS011;72082;52.650;8.116;2023-11-21T13:05:43;2.80;;;2.45;;
29534;SDS011;72082;52.650;8.116;2023-11-21T13:08:09;3.38;;;3.17;;
29534;SDS011;72082;52.650;8.116;2023-11-21T13:10:35;4.55;;;4.25;;
29534;SDS011;72082;52.650;8.116;2023-11-21T13:13:01;4.70;;;4.30;;
29534;SDS011;72082;52.650;8.116;2023-11-21T13:15:29;3.78;;;3.13;;
29534;SDS011;72082;52.650;8.116;2023-11-21T13:17:54;2.93;;;2.83;;
29534;SDS011;72082;52.650;8.116;2023-11-21T13:20:20;3.50;;;3.20;;
29534;SDS011;72082;52.650;8.116;2023-11-21T13:22:48;2.93;;;2.77;;
29534;SDS011;72082;52.650;8.116;2023-11-21T13:25:15;4.07;;;3.72;;
29534;SDS011;72082;52.650;8.116;2023-11-21T13:27:41;7.13;;;3.70;;
29534;SDS011;72082;52.650;8.116;2023-11-21T13:30:06;3.60;;;3.30;;
29534;SDS011;72082;52.650;8.116;2023-11-21T13:32:32;3.67;;;3.47;;
29534;SDS011;72082;52.650;8.116;2023-11-21T13:34:57;4.50;;;2.60;;
29534;SDS011;72082;52.650;8.116;2023-11-21T13:37:22;3.47;;;3.20;;
29534;SDS011;72082;52.650;8.116;2023-11-21T13:39:48;8.70;;;3.43;;
29534;SDS011;72082;52.650;8.116;2023-11-21T13:42:13;2.77;;;2.67;;
29534;SDS011;72082;52.650;8.116;2023-11-21T13:44:38;7.00;;;2.50;;
29534;SDS011;72082;52.650;8.116;2023-11-21T13:47:03;2.50;;;2.40;;
29534;SDS011;72082;52.650;8.116;2023-11-21T13:49:29;2.83;;;2.73;;
29534;SDS011;72082;52.650;8.116;2023-11-21T13:51:54;2.97;;;2.87;;
29534;SDS011;72082;52.650;8.116;2023-11-21T13:54:19;3.60;;;3.30;;
29534;SDS011;72082;52.650;8.116;2023-11-21T13:56:45;2.60;;;1.80;;
29534;SDS011;72082;52.650;8.116;2023-11-21T13:59:11;3.72;;;3.40;;
29534;SDS011;72082;52.650;8.116;2023-11-21T14:01:36;2.70;;;2.50;;
29534;SDS011;72082;52.650;8.116;2023-11-21T14:04:02;3.00;;;2.80;;
29534;SDS011;72082;52.650;8.116;2023-11-21T14:06:28;3.17;;;3.08;;
29534;SDS011;72082;52.650;8.116;2023-11-21T14:08:53;2.10;;;2.00;;
29534;SDS011;72082;52.650;8.116;2023-11-21T14:11:19;3.63;;;2.20;;
29534;SDS011;72082;52.650;8.116;2023-11-21T14:13:44;3.70;;;3.40;;
29534;SDS011;72082;52.650;8.116;2023-11-21T14:16:09;4.40;;;4.00;;
29534;SDS011;72082;52.650;8.116;2023-11-21T14:18:34;5.43;;;3.80;;
29534;SDS011;72082;52.650;8.116;2023-11-21T14:21:00;8.43;;;3.60;;
29534;SDS011;72082;52.650;8.116;2023-11-21T14:23:25;4.67;;;2.67;;
29534;SDS011;72082;52.650;8.116;2023-11-21T14:25:50;4.67;;;3.63;;
29534;SDS011;72082;52.650;8.116;2023-11-21T14:28:15;2.60;;;2.30;;
29534;SDS011;72082;52.650;8.116;2023-11-21T14:30:41;3.00;;;2.90;;
29534;SDS011;72082;52.650;8.116;2023-11-21T14:33:06;5.43;;;3.03;;
29534;SDS011;72082;52.650;8.116;2023-11-21T14:35:31;2.50;;;2.40;;
29534;SDS011;72082;52.650;8.116;2023-11-21T14:37:56;4.80;;;4.37;;
29534;SDS011;72082;52.650;8.116;2023-11-21T14:40:22;5.67;;;2.90;;
29534;SDS011;72082;52.650;8.116;2023-11-21T14:42:47;3.10;;;2.80;;